Time,TemperatureF,DewpointF,PressureIn,WindDirection,WindDirectionDegrees,WindSpeedMPH,WindSpeedGustMPH,Humidity,HourlyPrecipIn,Conditions,Clouds,dailyrainin,SoftwareType,DateUTC
2013-06-21 00:00:00,57.4,48.1,30.02,North,0,0.0,0.0,71,0.00,,,0.00,WUHU216HW,2013-06-21 04:00:00,
2013-06-21 00:01:00,57.4,48.1,30.02,North,0,0.0,0.0,71,0.00,,,0.00,WUHU216HW,2013-06-21 04:01:00,
2013-06-21 00:02:00,57.4,48.1,30.02,North,0,0.0,0.0,71,0.00,,,0.00,WUHU216HW,2013-06-21 04:02:00,
2013-06-21 00:07:00,57.4,48.1,30.02,North,0,0.0,0.0,71,0.00,,,0.00,WUHU216HW,2013-06-21 04:07:00,
2013-06-21 01:00:00,55.6,47.4,30.01,North,0,0.0,0.0,74,0.00,,,0.00,WUHU216HW,2013-06-21 05:00:00,
2013-06-21 01:05:00,55.4,47.3,30.01,North,0,0.0,0.0,74,0.00,,,0.00,WUHU216HW,2013-06-21 05:05:00,
2013-06-21 01:10:00,55.4,47.3,30.01,North,0,0.0,0.0,74,0.00,,,0.00,WUHU216HW,2013-06-21 05:10:00,
2013-06-21 01:15:00,55.1,46.9,30.01,North,0,0.0,0.0,74,0.00,,,0.00,WUHU216HW,2013-06-21 05:15:00,
2013-06-21 01:20:00,55.1,47.3,30.01,North,0,0.0,0.0,75,0.00,,,0.00,WUHU216HW,2013-06-21 05:20:00,
2013-06-21 01:25:00,54.9,47.1,30.01,North,0,0.0,0.0,75,0.00,,,0.00,WUHU216HW,2013-06-21 05:25:00,
2013-06-21 01:30:00,54.5,47.1,30.01,North,0,0.0,0.0,76,0.00,,,0.00,WUHU216HW,2013-06-21 05:30:00,
2013-06-21 01:35:00,54.4,46.6,30.01,North,0,0.0,0.0,75,0.00,,,0.00,WUHU216HW,2013-06-21 05:35:00,
2013-06-21 01:40:00,54.4,46.6,30.00,North,0,0.0,0.0,75,0.00,,,0.00,WUHU216HW,2013-06-21 05:40:00,
2013-06-21 01:45:00,54.0,46.3,30.00,North,0,0.0,0.0,75,0.00,,,0.00,WUHU216HW,2013-06-21 05:45:00,
2013-06-21 01:50:00,54.0,46.3,30.00,North,0,0.0,0.0,75,0.00,,,0.00,WUHU216HW,2013-06-21 05:50:00,
2013-06-21 01:55:00,54.0,46.3,30.00,North,0,0.0,0.0,75,0.00,,,0.00,WUHU216HW,2013-06-21 05:55:00,
2013-06-21 02:00:00,53.8,46.5,30.00,North,0,0.0,0.0,76,0.00,,,0.00,WUHU216HW,2013-06-21 06:00:00,
2013-06-21 02:05:00,53.8,46.5,30.00,North,0,0.0,0.0,76,0.00,,,0.00,WUHU216HW,2013-06-21 06:05:00,
2013-06-21 02:10:00,53.6,46.6,30.00,North,0,0.0,0.0,77,0.00,,,0.00,WUHU216HW,2013-06-21 06:10:00,
2013-06-21 02:15:00,53.6,46.6,30.00,North,0,0.0,0.0,77,0.00,,,0.00,WUHU216HW,2013-06-21 06:15:00,
2013-06-21 02:20:00,53.6,46.6,30.00,North,0,0.0,0.0,77,0.00,,,0.00,WUHU216HW,2013-06-21 06:20:00,
2013-06-21 02:25:00,53.5,46.4,30.00,North,0,0.0,0.0,77,0.00,,,0.00,WUHU216HW,2013-06-21 06:25:00,
2013-06-21 02:30:00,53.3,46.3,30.00,North,0,0.0,0.0,77,0.00,,,0.00,WUHU216HW,2013-06-21 06:30:00,
2013-06-21 02:35:00,53.1,46.1,30.00,North,0,0.0,0.0,77,0.00,,,0.00,WUHU216HW,2013-06-21 06:35:00,
2013-06-21 02:40:00,53.1,46.4,30.00,North,0,0.0,0.0,78,0.00,,,0.00,WUHU216HW,2013-06-21 06:40:00,
2013-06-21 02:45:00,52.9,46.3,30.00,North,0,0.0,0.0,78,0.00,,,0.00,WUHU216HW,2013-06-21 06:45:00,
2013-06-21 02:50:00,52.9,46.3,30.00,North,0,0.0,0.0,78,0.00,,,0.00,WUHU216HW,2013-06-21 06:50:00,
2013-06-21 02:55:00,52.9,46.3,29.99,North,0,0.0,0.0,78,0.00,,,0.00,WUHU216HW,2013-06-21 06:55:00,
2013-06-21 03:00:00,52.7,46.1,30.00,North,0,0.0,0.0,78,0.00,,,0.00,WUHU216HW,2013-06-21 07:00:00,
2013-06-21 03:05:00,52.7,46.1,30.00,North,0,0.0,0.0,78,0.00,,,0.00,WUHU216HW,2013-06-21 07:05:00,
2013-06-21 03:10:00,52.6,45.9,30.00,North,0,0.0,0.0,78,0.00,,,0.00,WUHU216HW,2013-06-21 07:10:00,
2013-06-21 03:15:00,52.4,45.7,30.00,North,0,0.0,0.0,78,0.00,,,0.00,WUHU216HW,2013-06-21 07:15:00,
2013-06-21 03:20:00,52.4,46.1,30.00,North,0,0.0,0.0,79,0.00,,,0.00,WUHU216HW,2013-06-21 07:20:00,
2013-06-21 03:25:00,52.2,45.9,29.99,North,0,0.0,0.0,79,0.00,,,0.00,WUHU216HW,2013-06-21 07:25:00,
2013-06-21 03:30:00,52.2,45.9,30.00,North,0,0.0,0.0,79,0.00,,,0.00,WUHU216HW,2013-06-21 07:30:00,
2013-06-21 03:35:00,52.2,45.9,30.00,North,0,0.0,0.0,79,0.00,,,0.00,WUHU216HW,2013-06-21 07:35:00,
2013-06-21 03:40:00,52.2,45.9,30.00,North,0,0.0,0.0,79,0.00,,,0.00,WUHU216HW,2013-06-21 07:40:00,
2013-06-21 03:45:00,52.0,45.7,29.99,North,0,0.0,0.0,79,0.00,,,0.00,WUHU216HW,2013-06-21 07:45:00,
2013-06-21 03:50:00,51.8,45.5,30.00,North,0,0.0,0.0,79,0.00,,,0.00,WUHU216HW,2013-06-21 07:50:00,
2013-06-21 03:55:00,51.8,45.9,29.99,North,0,0.0,0.0,80,0.00,,,0.00,WUHU216HW,2013-06-21 07:55:00,
2013-06-21 04:00:00,51.8,45.9,30.00,North,0,0.0,0.0,80,0.00,,,0.00,WUHU216HW,2013-06-21 08:00:00,
2013-06-21 04:05:00,51.7,45.7,30.00,North,0,0.0,0.0,80,0.00,,,0.00,WUHU216HW,2013-06-21 08:05:00,
2013-06-21 04:10:00,51.7,45.7,30.00,North,0,0.0,0.0,80,0.00,,,0.00,WUHU216HW,2013-06-21 08:10:00,
2013-06-21 04:15:00,51.5,45.5,29.99,North,0,0.0,0.0,80,0.00,,,0.00,WUHU216HW,2013-06-21 08:15:00,
2013-06-21 04:20:00,51.5,45.5,29.99,North,0,0.0,0.0,80,0.00,,,0.00,WUHU216HW,2013-06-21 08:20:00,
2013-06-21 04:26:00,51.5,45.5,29.99,North,0,0.0,0.0,80,0.00,,,0.00,WUHU216HW,2013-06-21 08:26:00,
2013-06-21 04:31:00,51.5,45.8,29.99,North,0,0.0,0.0,81,0.00,,,0.00,WUHU216HW,2013-06-21 08:31:00,
2013-06-21 04:36:00,51.3,45.6,29.99,North,0,0.0,0.0,81,0.00,,,0.00,WUHU216HW,2013-06-21 08:36:00,
2013-06-21 04:41:00,51.3,45.6,30.00,North,0,0.0,0.0,81,0.00,,,0.00,WUHU216HW,2013-06-21 08:41:00,
2013-06-21 04:46:00,51.1,45.5,30.00,North,0,0.0,0.0,81,0.00,,,0.00,WUHU216HW,2013-06-21 08:46:00,
2013-06-21 04:51:00,51.1,45.5,30.00,North,0,0.0,0.0,81,0.00,,,0.00,WUHU216HW,2013-06-21 08:51:00,
2013-06-21 04:56:00,51.1,45.5,30.00,North,0,0.0,0.0,81,0.00,,,0.00,WUHU216HW,2013-06-21 08:56:00,
2013-06-21 05:01:00,50.9,45.3,30.01,North,0,0.0,0.0,81,0.00,,,0.00,WUHU216HW,2013-06-21 09:01:00,
2013-06-21 05:06:00,50.9,45.3,30.01,North,0,0.0,0.0,81,0.00,,,0.00,WUHU216HW,2013-06-21 09:06:00,
2013-06-21 05:11:00,50.8,45.1,30.01,North,0,0.0,0.0,81,0.00,,,0.00,WUHU216HW,2013-06-21 09:11:00,
2013-06-21 05:16:00,50.8,45.1,30.01,North,0,0.0,0.0,81,0.00,,,0.00,WUHU216HW,2013-06-21 09:16:00,
2013-06-21 05:21:00,50.8,45.1,30.01,North,0,0.0,0.0,81,0.00,,,0.00,WUHU216HW,2013-06-21 09:21:00,
2013-06-21 05:26:00,50.8,45.5,30.01,North,0,0.0,0.0,82,0.00,,,0.00,WUHU216HW,2013-06-21 09:26:00,
2013-06-21 05:31:00,50.6,45.3,30.01,North,0,0.0,0.0,82,0.00,,,0.00,WUHU216HW,2013-06-21 09:31:00,
2013-06-21 05:36:00,50.6,45.3,30.01,North,0,0.0,0.0,82,0.00,,,0.00,WUHU216HW,2013-06-21 09:36:00,
2013-06-21 05:41:00,50.4,45.1,30.02,North,0,0.0,0.0,82,0.00,,,0.00,WUHU216HW,2013-06-21 09:41:00,
2013-06-21 05:46:00,50.6,45.3,30.02,North,0,0.0,0.0,82,0.00,,,0.00,WUHU216HW,2013-06-21 09:46:00,
2013-06-21 05:51:00,50.6,45.3,30.02,North,0,0.0,0.0,82,0.00,,,0.00,WUHU216HW,2013-06-21 09:51:00,
2013-06-21 05:56:00,50.8,45.5,30.02,North,0,0.0,0.0,82,0.00,,,0.00,WUHU216HW,2013-06-21 09:56:00,
2013-06-21 06:01:00,50.8,45.7,30.02,North,0,0.0,0.0,83,0.00,,,0.00,WUHU216HW,2013-06-21 10:01:00,
2013-06-21 06:06:00,50.8,45.7,30.02,North,0,0.0,0.0,83,0.00,,,0.00,WUHU216HW,2013-06-21 10:06:00,
2013-06-21 06:11:00,50.8,45.7,30.02,North,0,0.0,0.0,83,0.00,,,0.00,WUHU216HW,2013-06-21 10:11:00,
2013-06-21 06:16:00,50.9,45.9,30.02,North,0,0.0,0.0,83,0.00,,,0.00,WUHU216HW,2013-06-21 10:16:00,
2013-06-21 06:22:00,51.1,46.1,30.02,North,0,0.0,0.0,83,0.00,,,0.00,WUHU216HW,2013-06-21 10:22:00,
2013-06-21 06:27:00,51.1,46.1,30.02,North,0,0.0,0.0,83,0.00,,,0.00,WUHU216HW,2013-06-21 10:27:00,
2013-06-21 06:32:00,51.3,46.3,30.01,North,0,0.0,0.0,83,0.00,,,0.00,WUHU216HW,2013-06-21 10:32:00,
2013-06-21 06:37:00,51.5,46.8,30.01,North,0,0.0,0.0,84,0.00,,,0.00,WUHU216HW,2013-06-21 10:37:00,
2013-06-21 06:42:00,51.5,46.8,30.02,North,0,0.0,0.0,84,0.00,,,0.00,WUHU216HW,2013-06-21 10:42:00,
2013-06-21 06:47:00,51.8,47.2,30.01,North,0,0.0,0.0,84,0.00,,,0.00,WUHU216HW,2013-06-21 10:47:00,
2013-06-21 06:52:00,52.2,47.5,30.01,North,0,0.0,0.0,84,0.00,,,0.00,WUHU216HW,2013-06-21 10:52:00,
2013-06-21 06:57:00,52.4,47.7,30.01,North,0,0.0,0.0,84,0.00,,,0.00,WUHU216HW,2013-06-21 10:57:00,
2013-06-21 07:02:00,52.6,47.9,30.01,North,0,0.0,0.0,84,0.00,,,0.00,WUHU216HW,2013-06-21 11:02:00,
2013-06-21 07:07:00,52.9,48.3,30.02,North,0,0.0,0.0,84,0.00,,,0.00,WUHU216HW,2013-06-21 11:07:00,
2013-06-21 07:12:00,53.3,48.6,30.01,North,0,0.0,0.0,84,0.00,,,0.00,WUHU216HW,2013-06-21 11:12:00,
2013-06-21 07:17:00,53.5,48.8,30.02,North,0,0.0,0.0,84,0.00,,,0.00,WUHU216HW,2013-06-21 11:17:00,
2013-06-21 07:23:00,54.0,49.2,30.02,North,0,0.0,0.0,84,0.00,,,0.00,WUHU216HW,2013-06-21 11:23:00,
2013-06-21 07:28:00,54.4,49.6,30.02,North,0,0.0,0.0,84,0.00,,,0.00,WUHU216HW,2013-06-21 11:28:00,
2013-06-21 07:33:00,54.7,50.2,30.02,North,0,0.0,0.0,85,0.00,,,0.00,WUHU216HW,2013-06-21 11:33:00,
2013-06-21 07:38:00,54.7,50.2,30.02,North,0,0.0,0.0,85,0.00,,,0.00,WUHU216HW,2013-06-21 11:38:00,
2013-06-21 08:00:00,57.8,52.9,30.02,North,0,0.0,0.0,84,0.00,,,0.00,WUHU216HW,2013-06-21 12:00:00,
2013-06-21 08:05:00,58.3,53.5,30.02,North,0,0.0,0.0,84,0.00,,,0.00,WUHU216HW,2013-06-21 12:05:00,
2013-06-21 08:10:00,59.0,53.9,30.02,North,0,0.0,0.0,83,0.00,,,0.00,WUHU216HW,2013-06-21 12:10:00,
2013-06-21 08:15:00,59.6,54.1,30.03,North,0,0.0,0.0,82,0.00,,,0.00,WUHU216HW,2013-06-21 12:15:00,
2013-06-21 08:20:00,60.3,54.6,30.02,North,0,0.0,0.0,81,0.00,,,0.00,WUHU216HW,2013-06-21 12:20:00,
2013-06-21 08:25:00,60.8,55.1,30.02,North,0,0.0,0.0,81,0.00,,,0.00,WUHU216HW,2013-06-21 12:25:00,
2013-06-21 08:30:00,61.9,55.7,30.02,North,0,0.0,0.0,80,0.00,,,0.00,WUHU216HW,2013-06-21 12:30:00,
2013-06-21 08:35:00,62.6,56.0,30.02,North,0,0.0,0.0,79,0.00,,,0.00,WUHU216HW,2013-06-21 12:35:00,
2013-06-21 08:40:00,63.4,56.7,30.02,North,0,0.0,0.0,79,0.00,,,0.00,WUHU216HW,2013-06-21 12:40:00,
2013-06-21 08:45:00,63.7,57.1,30.02,North,0,0.0,0.0,79,0.00,,,0.00,WUHU216HW,2013-06-21 12:45:00,
2013-06-21 08:50:00,64.1,57.1,30.02,North,0,0.0,0.0,78,0.00,,,0.00,WUHU216HW,2013-06-21 12:50:00,
2013-06-21 08:55:00,64.1,57.1,30.02,North,0,0.0,0.0,78,0.00,,,0.00,WUHU216HW,2013-06-21 12:55:00,
2013-06-21 09:00:00,66.1,58.2,30.02,North,0,0.0,0.0,76,0.00,,,0.00,WUHU216HW,2013-06-21 13:00:00,
2013-06-21 09:05:00,66.6,58.4,30.02,North,0,0.0,0.0,75,0.00,,,0.00,WUHU216HW,2013-06-21 13:05:00,
2013-06-21 09:10:00,67.1,58.6,30.01,North,0,0.0,0.0,74,0.00,,,0.00,WUHU216HW,2013-06-21 13:10:00,
2013-06-21 09:15:00,67.7,59.1,30.01,North,0,0.0,0.0,74,0.00,,,0.00,WUHU216HW,2013-06-21 13:15:00,
2013-06-21 09:20:00,68.4,59.0,30.02,North,0,0.0,0.0,72,0.00,,,0.00,WUHU216HW,2013-06-21 13:20:00,
2013-06-21 09:25:00,68.9,59.1,30.02,North,0,0.0,0.0,71,0.00,,,0.00,WUHU216HW,2013-06-21 13:25:00,
2013-06-21 09:30:00,69.5,59.7,30.02,North,0,0.0,0.0,71,0.00,,,0.00,WUHU216HW,2013-06-21 13:30:00,
2013-06-21 09:35:00,70.0,59.8,30.02,North,0,0.0,0.0,70,0.00,,,0.00,WUHU216HW,2013-06-21 13:35:00,
2013-06-21 09:40:00,70.0,59.8,30.02,North,0,0.0,0.0,70,0.00,,,0.00,WUHU216HW,2013-06-21 13:40:00,
2013-06-21 09:45:00,70.0,59.8,30.02,North,0,0.0,0.0,70,0.00,,,0.00,WUHU216HW,2013-06-21 13:45:00,
2013-06-21 10:00:00,73.4,62.3,30.02,North,0,0.0,0.0,68,0.00,,,0.00,WUHU216HW,2013-06-21 14:00:00,
2013-06-21 10:05:00,74.0,61.9,30.02,North,0,0.0,0.0,66,0.00,,,0.00,WUHU216HW,2013-06-21 14:05:00,
2013-06-21 10:10:00,74.5,62.4,30.01,North,0,0.0,0.0,66,0.00,,,0.00,WUHU216HW,2013-06-21 14:10:00,
2013-06-21 10:15:00,74.7,62.6,30.02,North,0,0.0,0.0,66,0.00,,,0.00,WUHU216HW,2013-06-21 14:15:00,
2013-06-21 10:20:00,75.4,62.8,30.02,North,0,0.0,0.0,65,0.00,,,0.00,WUHU216HW,2013-06-21 14:20:00,
2013-06-21 10:25:00,76.5,62.9,30.02,North,0,0.0,0.0,63,0.00,,,0.00,WUHU216HW,2013-06-21 14:25:00,
2013-06-21 10:30:00,76.7,62.6,30.02,North,0,0.0,0.0,62,0.00,,,0.00,WUHU216HW,2013-06-21 14:30:00,
2013-06-21 10:35:00,77.0,63.0,30.02,North,0,0.0,0.0,62,0.00,,,0.00,WUHU216HW,2013-06-21 14:35:00,
2013-06-21 10:40:00,77.4,61.5,30.02,North,0,0.0,0.0,58,0.00,,,0.00,WUHU216HW,2013-06-21 14:40:00,
2013-06-21 10:45:00,77.6,62.1,30.02,North,0,0.0,0.0,59,0.00,,,0.00,WUHU216HW,2013-06-21 14:45:00,
2013-06-21 10:50:00,78.5,62.0,30.02,North,0,0.0,0.0,57,0.00,,,0.00,WUHU216HW,2013-06-21 14:50:00,
2013-06-21 10:55:00,78.8,62.4,30.02,North,0,0.0,0.0,57,0.00,,,0.00,WUHU216HW,2013-06-21 14:55:00,
2013-06-21 11:00:00,79.0,61.5,30.02,North,0,0.0,0.0,55,0.00,,,0.00,WUHU216HW,2013-06-21 15:00:00,
2013-06-21 11:05:00,79.2,60.6,30.02,North,0,0.0,0.0,53,0.00,,,0.00,WUHU216HW,2013-06-21 15:05:00,
2013-06-21 11:10:00,79.4,60.8,30.02,North,0,0.0,0.0,53,0.00,,,0.00,WUHU216HW,2013-06-21 15:10:00,
2013-06-21 11:15:00,79.9,61.2,30.02,North,0,0.0,0.0,53,0.00,,,0.00,WUHU216HW,2013-06-21 15:15:00,
2013-06-21 11:21:00,81.0,60.0,30.02,North,0,0.0,0.0,49,0.00,,,0.00,WUHU216HW,2013-06-21 15:21:00,
2013-06-21 11:26:00,81.5,59.3,30.02,North,0,0.0,0.0,47,0.00,,,0.00,WUHU216HW,2013-06-21 15:26:00,
2013-06-21 11:31:00,81.9,57.2,30.02,North,0,0.0,0.0,43,0.00,,,0.00,WUHU216HW,2013-06-21 15:31:00,
2013-06-21 11:36:00,81.5,56.3,30.02,North,0,0.0,0.0,42,0.00,,,0.00,WUHU216HW,2013-06-21 15:36:00,
2013-06-21 11:41:00,81.7,55.8,30.02,North,0,0.0,0.0,41,0.00,,,0.00,WUHU216HW,2013-06-21 15:41:00,
2013-06-21 11:46:00,82.3,57.5,30.02,North,0,0.0,0.0,43,0.00,,,0.00,WUHU216HW,2013-06-21 15:46:00,
2013-06-21 11:51:00,83.0,56.3,30.02,North,0,0.0,0.0,40,0.00,,,0.00,WUHU216HW,2013-06-21 15:51:00,
2013-06-21 11:56:00,83.0,56.3,30.02,North,0,0.0,0.0,40,0.00,,,0.00,WUHU216HW,2013-06-21 15:56:00,
2013-06-21 12:01:00,83.7,56.2,30.02,North,0,0.0,0.0,39,0.00,,,0.00,WUHU216HW,2013-06-21 16:01:00,
2013-06-21 12:06:00,83.5,56.0,30.02,North,0,0.0,0.0,39,0.00,,,0.00,WUHU216HW,2013-06-21 16:06:00,
2013-06-21 12:11:00,83.9,57.1,30.02,North,0,0.0,0.0,40,0.00,,,0.00,WUHU216HW,2013-06-21 16:11:00,
2013-06-21 12:16:00,84.2,57.4,30.02,North,0,0.0,0.0,40,0.00,,,0.00,WUHU216HW,2013-06-21 16:16:00,
2013-06-21 12:21:00,84.6,58.4,30.02,North,0,0.0,0.0,41,0.00,,,0.00,WUHU216HW,2013-06-21 16:21:00,
2013-06-21 12:26:00,84.6,56.2,30.02,North,0,0.0,0.0,38,0.00,,,0.00,WUHU216HW,2013-06-21 16:26:00,
2013-06-21 12:31:00,84.8,57.2,30.02,North,0,0.0,0.0,39,0.00,,,0.00,WUHU216HW,2013-06-21 16:31:00,
2013-06-21 12:36:00,85.0,56.5,30.02,North,0,0.0,0.0,38,0.00,,,0.00,WUHU216HW,2013-06-21 16:36:00,
2013-06-21 12:41:00,84.8,57.2,30.02,North,0,0.0,0.0,39,0.00,,,0.00,WUHU216HW,2013-06-21 16:41:00,
2013-06-21 12:46:00,84.8,57.2,30.02,North,0,0.0,0.0,39,0.00,,,0.00,WUHU216HW,2013-06-21 16:46:00,
2013-06-21 13:00:00,85.7,57.2,30.02,North,0,0.0,0.0,38,0.00,,,0.00,WUHU216HW,2013-06-21 17:00:00,
2013-06-21 13:05:00,86.0,57.4,30.02,North,0,0.0,0.0,38,0.00,,,0.00,WUHU216HW,2013-06-21 17:05:00,
2013-06-21 13:10:00,86.0,55.1,30.01,North,0,0.0,0.0,35,0.00,,,0.00,WUHU216HW,2013-06-21 17:10:00,
2013-06-21 13:15:00,85.9,56.5,30.01,North,0,0.0,0.0,37,0.00,,,0.00,WUHU216HW,2013-06-21 17:15:00,
2013-06-21 13:20:00,86.0,57.4,30.01,North,0,0.0,0.0,38,0.00,,,0.00,WUHU216HW,2013-06-21 17:20:00,
2013-06-21 13:26:00,86.8,58.9,30.01,North,0,0.0,0.0,39,0.00,,,0.00,WUHU216HW,2013-06-21 17:26:00,
2013-06-21 13:31:00,87.1,58.4,30.01,North,0,0.0,0.0,38,0.00,,,0.00,WUHU216HW,2013-06-21 17:31:00,
2013-06-21 13:36:00,87.3,57.8,30.01,North,0,0.0,0.0,37,0.00,,,0.00,WUHU216HW,2013-06-21 17:36:00,
2013-06-21 13:41:00,87.7,58.9,30.00,North,0,0.0,0.0,38,0.00,,,0.00,WUHU216HW,2013-06-21 17:41:00,
2013-06-21 13:46:00,87.8,57.4,30.00,North,0,0.0,0.0,36,0.00,,,0.00,WUHU216HW,2013-06-21 17:46:00,
2013-06-21 13:47:00,87.7,57.2,30.00,North,0,0.0,0.0,36,0.00,,,0.00,WUHU216HW,2013-06-21 17:47:00,
2013-06-21 13:52:00,87.7,54.8,30.00,North,0,0.0,0.0,33,0.00,,,0.00,WUHU216HW,2013-06-21 17:52:00,
2013-06-21 13:58:00,87.8,59.0,30.00,North,0,0.0,0.0,38,0.00,,,0.00,WUHU216HW,2013-06-21 17:58:00,
2013-06-21 14:03:00,87.8,55.8,30.00,North,0,0.0,0.0,34,0.00,,,0.00,WUHU216HW,2013-06-21 18:03:00,
2013-06-21 14:08:00,87.7,54.8,30.00,North,0,0.0,0.0,33,0.00,,,0.00,WUHU216HW,2013-06-21 18:08:00,
2013-06-21 14:14:00,88.2,55.3,29.99,North,0,0.0,0.0,33,0.00,,,0.00,WUHU216HW,2013-06-21 18:14:00,
2013-06-21 14:19:00,88.6,58.1,30.00,North,0,0.0,0.0,36,0.00,,,0.00,WUHU216HW,2013-06-21 18:19:00,
2013-06-21 14:23:00,88.6,58.1,30.00,North,0,0.0,0.0,36,0.00,,,0.00,WUHU216HW,2013-06-21 18:23:00,
2013-06-21 14:24:00,88.6,58.1,30.00,North,0,0.0,0.0,36,0.00,,,0.00,WUHU216HW,2013-06-21 18:24:00,
2013-06-21 14:29:00,88.7,58.1,30.00,North,0,0.0,0.0,36,0.00,,,0.00,WUHU216HW,2013-06-21 18:29:00,
2013-06-21 14:34:00,88.0,57.6,30.00,North,0,0.0,0.0,36,0.00,,,0.00,WUHU216HW,2013-06-21 18:34:00,
2013-06-21 14:40:00,87.8,57.4,30.00,North,0,0.0,0.0,36,0.00,,,0.00,WUHU216HW,2013-06-21 18:40:00,
2013-06-21 14:45:00,88.6,59.7,30.00,North,0,0.0,0.0,38,0.00,,,0.00,WUHU216HW,2013-06-21 18:45:00,
2013-06-21 14:46:00,88.6,58.1,30.00,North,0,0.0,0.0,36,0.00,,,0.00,WUHU216HW,2013-06-21 18:46:00,
2013-06-21 14:47:00,88.7,59.0,30.00,North,0,0.0,0.0,37,0.00,,,0.00,WUHU216HW,2013-06-21 18:47:00,
2013-06-21 14:52:00,88.9,57.5,30.00,North,0,0.0,0.0,35,0.00,,,0.00,WUHU216HW,2013-06-21 18:52:00,
2013-06-21 14:57:00,88.7,57.3,30.00,North,0,0.0,0.0,35,0.00,,,0.00,WUHU216HW,2013-06-21 18:57:00,
2013-06-21 15:03:00,88.9,57.5,30.01,North,0,0.0,0.0,35,0.00,,,0.00,WUHU216HW,2013-06-21 19:03:00,
2013-06-21 15:08:00,88.9,57.5,30.00,North,0,0.0,0.0,35,0.00,,,0.00,WUHU216HW,2013-06-21 19:08:00,
2013-06-21 15:14:00,88.9,56.7,30.00,North,0,0.0,0.0,34,0.00,,,0.00,WUHU216HW,2013-06-21 19:14:00,
2013-06-21 15:20:00,89.3,57.9,30.00,North,0,0.0,0.0,35,0.00,,,0.00,WUHU216HW,2013-06-21 19:20:00,
2013-06-21 15:25:00,89.3,57.9,30.00,North,0,0.0,0.0,35,0.00,,,0.00,WUHU216HW,2013-06-21 19:25:00,
2013-06-21 15:30:00,89.6,58.1,30.00,North,0,0.0,0.0,35,0.00,,,0.00,WUHU216HW,2013-06-21 19:30:00,
2013-06-21 15:35:00,89.8,58.3,30.00,North,0,0.0,0.0,35,0.00,,,0.00,WUHU216HW,2013-06-21 19:35:00,
2013-06-21 15:40:00,89.6,57.3,30.00,North,0,0.0,0.0,34,0.00,,,0.00,WUHU216HW,2013-06-21 19:40:00,
2013-06-21 15:42:00,89.6,58.1,30.00,North,0,0.0,0.0,35,0.00,,,0.00,WUHU216HW,2013-06-21 19:42:00,
2013-06-21 15:43:00,89.5,58.0,29.99,North,0,0.0,0.0,35,0.00,,,0.00,WUHU216HW,2013-06-21 19:43:00,
2013-06-21 15:48:00,89.5,58.0,29.99,North,0,0.0,0.0,35,0.00,,,0.00,WUHU216HW,2013-06-21 19:48:00,
2013-06-21 15:53:00,89.8,57.5,29.99,North,0,0.0,0.0,34,0.00,,,0.00,WUHU216HW,2013-06-21 19:53:00,
2013-06-21 15:58:00,89.6,58.1,29.99,North,0,0.0,0.0,35,0.00,,,0.00,WUHU216HW,2013-06-21 19:58:00,
2013-06-21 16:03:00,89.6,58.1,29.99,North,0,0.0,0.0,35,0.00,,,0.00,WUHU216HW,2013-06-21 20:03:00,
2013-06-21 16:04:00,89.6,56.5,30.00,North,0,0.0,0.0,33,0.00,,,0.00,WUHU216HW,2013-06-21 20:04:00,
2013-06-21 16:09:00,89.6,56.5,29.99,North,0,0.0,0.0,33,0.00,,,0.00,WUHU216HW,2013-06-21 20:09:00,
2013-06-21 16:10:00,89.6,56.5,29.99,North,0,0.0,0.0,33,0.00,,,0.00,WUHU216HW,2013-06-21 20:10:00,
2013-06-21 16:16:00,89.5,57.2,29.99,North,0,0.0,0.0,34,0.00,,,0.00,WUHU216HW,2013-06-21 20:16:00,
2013-06-21 16:17:00,89.5,57.2,29.99,North,0,0.0,0.0,34,0.00,,,0.00,WUHU216HW,2013-06-21 20:17:00,
2013-06-21 16:22:00,89.3,56.3,29.99,North,0,0.0,0.0,33,0.00,,,0.00,WUHU216HW,2013-06-21 20:22:00,
2013-06-21 16:27:00,89.5,57.2,29.99,North,0,0.0,0.0,34,0.00,,,0.00,WUHU216HW,2013-06-21 20:27:00,
2013-06-21 16:32:00,88.9,57.5,29.99,North,0,0.0,0.0,35,0.00,,,0.00,WUHU216HW,2013-06-21 20:32:00,
2013-06-21 16:37:00,88.0,57.6,29.99,North,0,0.0,0.0,36,0.00,,,0.00,WUHU216HW,2013-06-21 20:37:00,
2013-06-21 16:42:00,87.3,54.5,29.99,North,0,0.0,0.0,33,0.00,,,0.00,WUHU216HW,2013-06-21 20:42:00,
2013-06-21 16:47:00,86.8,55.7,29.99,North,0,0.0,0.0,35,0.00,,,0.00,WUHU216HW,2013-06-21 20:47:00,
2013-06-21 16:52:00,86.2,56.8,29.98,North,0,0.0,0.0,37,0.00,,,0.00,WUHU216HW,2013-06-21 20:52:00,
2013-06-21 16:57:00,86.0,56.7,29.98,North,0,0.0,0.0,37,0.00,,,0.00,WUHU216HW,2013-06-21 20:57:00,
2013-06-21 17:02:00,86.0,57.4,29.98,North,0,0.0,0.0,38,0.00,,,0.00,WUHU216HW,2013-06-21 21:02:00,
2013-06-21 17:04:00,86.0,57.4,29.98,North,0,0.0,0.0,38,0.00,,,0.00,WUHU216HW,2013-06-21 21:04:00,
2013-06-21 17:09:00,86.2,56.8,29.98,North,0,0.0,0.0,37,0.00,,,0.00,WUHU216HW,2013-06-21 21:09:00,
2013-06-21 17:14:00,86.8,57.3,29.98,North,0,0.0,0.0,37,0.00,,,0.00,WUHU216HW,2013-06-21 21:14:00,
2013-06-21 17:19:00,87.1,58.4,29.98,North,0,0.0,0.0,38,0.00,,,0.00,WUHU216HW,2013-06-21 21:19:00,
2013-06-21 17:24:00,87.3,55.4,29.98,North,0,0.0,0.0,34,0.00,,,0.00,WUHU216HW,2013-06-21 21:24:00,
2013-06-21 17:29:00,87.1,55.2,29.98,North,0,0.0,0.0,34,0.00,,,0.00,WUHU216HW,2013-06-21 21:29:00,
2013-06-21 17:32:00,87.1,56.8,29.98,North,0,0.0,0.0,36,0.00,,,0.00,WUHU216HW,2013-06-21 21:32:00,
2013-06-21 17:34:00,87.1,56.8,29.98,North,0,0.0,0.0,36,0.00,,,0.00,WUHU216HW,2013-06-21 21:34:00,
2013-06-21 17:39:00,87.1,56.8,29.98,North,0,0.0,0.0,36,0.00,,,0.00,WUHU216HW,2013-06-21 21:39:00,
2013-06-21 18:00:00,85.3,53.6,29.99,North,0,0.0,0.0,34,0.00,,,0.00,WUHU216HW,2013-06-21 22:00:00,
2013-06-21 18:05:00,85.0,53.3,29.98,North,0,0.0,0.0,34,0.00,,,0.00,WUHU216HW,2013-06-21 22:05:00,
2013-06-21 18:10:00,84.2,53.5,29.98,North,0,0.0,0.0,35,0.00,,,0.00,WUHU216HW,2013-06-21 22:10:00,
2013-06-21 18:15:00,83.9,53.1,29.98,North,0,0.0,0.0,35,0.00,,,0.00,WUHU216HW,2013-06-21 22:15:00,
2013-06-21 18:20:00,83.7,53.0,29.99,North,0,0.0,0.0,35,0.00,,,0.00,WUHU216HW,2013-06-21 22:20:00,
2013-06-21 18:25:00,83.3,52.7,29.98,North,0,0.0,0.0,35,0.00,,,0.00,WUHU216HW,2013-06-21 22:25:00,
2013-06-21 18:30:00,83.2,53.3,29.99,North,0,0.0,0.0,36,0.00,,,0.00,WUHU216HW,2013-06-21 22:30:00,
2013-06-21 18:35:00,82.8,53.7,29.99,North,0,0.0,0.0,37,0.00,,,0.00,WUHU216HW,2013-06-21 22:35:00,
2013-06-21 18:41:00,82.4,53.5,29.99,North,0,0.0,0.0,37,0.00,,,0.00,WUHU216HW,2013-06-21 22:41:00,
2013-06-21 18:46:00,82.3,54.1,29.99,North,0,0.0,0.0,38,0.00,,,0.00,WUHU216HW,2013-06-21 22:46:00,
2013-06-21 18:51:00,82.1,53.9,29.99,North,0,0.0,0.0,38,0.00,,,0.00,WUHU216HW,2013-06-21 22:51:00,
2013-06-21 18:56:00,81.7,53.6,29.99,North,0,0.0,0.0,38,0.00,,,0.00,WUHU216HW,2013-06-21 22:56:00,
2013-06-21 19:01:00,81.5,53.5,29.99,North,0,0.0,0.0,38,0.00,,,0.00,WUHU216HW,2013-06-21 23:01:00,
2013-06-21 19:06:00,81.4,54.1,29.99,North,0,0.0,0.0,39,0.00,,,0.00,WUHU216HW,2013-06-21 23:06:00,
2013-06-21 19:11:00,81.2,53.9,29.99,North,0,0.0,0.0,39,0.00,,,0.00,WUHU216HW,2013-06-21 23:11:00,
2013-06-21 19:16:00,80.8,54.4,29.99,North,0,0.0,0.0,40,0.00,,,0.00,WUHU216HW,2013-06-21 23:16:00,
2013-06-21 19:21:00,80.6,54.2,29.99,North,0,0.0,0.0,40,0.00,,,0.00,WUHU216HW,2013-06-21 23:21:00,
2013-06-21 19:26:00,80.3,55.1,29.99,North,0,0.0,0.0,42,0.00,,,0.00,WUHU216HW,2013-06-21 23:26:00,
2013-06-21 19:31:00,79.9,55.4,29.99,North,0,0.0,0.0,43,0.00,,,0.00,WUHU216HW,2013-06-21 23:31:00,
2013-06-21 19:36:00,79.7,55.8,29.99,North,0,0.0,0.0,44,0.00,,,0.00,WUHU216HW,2013-06-21 23:36:00,
2013-06-21 19:41:00,79.7,55.8,29.99,North,0,0.0,0.0,44,0.00,,,0.00,WUHU216HW,2013-06-21 23:41:00,
2013-06-21 20:00:00,77.4,57.9,30.00,North,0,0.0,0.0,51,0.00,,,0.00,WUHU216HW,2013-06-22 00:00:00,
2013-06-21 20:05:00,76.7,58.2,29.99,North,0,0.0,0.0,53,0.00,,,0.00,WUHU216HW,2013-06-22 00:05:00,
2013-06-21 20:10:00,76.3,58.0,29.99,North,0,0.0,0.0,53,0.00,,,0.00,WUHU216HW,2013-06-22 00:10:00,
2013-06-21 20:15:00,76.0,57.6,29.99,North,0,0.0,0.0,53,0.00,,,0.00,WUHU216HW,2013-06-22 00:15:00,
2013-06-21 20:20:00,75.6,57.2,29.99,North,0,0.0,0.0,53,0.00,,,0.00,WUHU216HW,2013-06-22 00:20:00,
2013-06-21 20:25:00,74.9,56.6,29.99,North,0,0.0,0.0,53,0.00,,,0.00,WUHU216HW,2013-06-22 00:25:00,
2013-06-21 20:30:00,74.5,56.7,29.99,North,0,0.0,0.0,54,0.00,,,0.00,WUHU216HW,2013-06-22 00:30:00,
2013-06-21 20:35:00,74.2,56.3,29.99,North,0,0.0,0.0,54,0.00,,,0.00,WUHU216HW,2013-06-22 00:35:00,
2013-06-21 20:40:00,74.2,56.3,29.99,North,0,0.0,0.0,54,0.00,,,0.00,WUHU216HW,2013-06-22 00:40:00,
2013-06-21 21:00:00,72.0,55.9,30.00,North,0,0.0,0.0,57,0.00,,,0.00,WUHU216HW,2013-06-22 01:00:00,
2013-06-21 21:05:00,71.6,56.1,30.00,North,0,0.0,0.0,58,0.00,,,0.00,WUHU216HW,2013-06-22 01:05:00,
2013-06-21 21:10:00,71.1,56.1,30.00,North,0,0.0,0.0,59,0.00,,,0.00,WUHU216HW,2013-06-22 01:10:00,
2013-06-21 21:15:00,70.9,55.9,30.00,North,0,0.0,0.0,59,0.00,,,0.00,WUHU216HW,2013-06-22 01:15:00,
2013-06-21 21:20:00,70.4,55.5,30.00,North,0,0.0,0.0,59,0.00,,,0.00,WUHU216HW,2013-06-22 01:20:00,
2013-06-21 21:25:00,69.8,54.9,30.00,North,0,0.0,0.0,59,0.00,,,0.00,WUHU216HW,2013-06-22 01:25:00,
2013-06-21 21:30:00,69.5,55.1,30.00,North,0,0.0,0.0,60,0.00,,,0.00,WUHU216HW,2013-06-22 01:30:00,
2013-06-21 21:35:00,69.3,54.9,30.00,North,0,0.0,0.0,60,0.00,,,0.00,WUHU216HW,2013-06-22 01:35:00,
2013-06-21 21:40:00,69.3,54.9,30.00,North,0,0.0,0.0,60,0.00,,,0.00,WUHU216HW,2013-06-22 01:40:00,
2013-06-21 22:00:00,67.5,54.5,30.00,North,0,0.0,0.0,63,0.00,,,0.00,WUHU216HW,2013-06-22 02:00:00,
2013-06-21 22:05:00,67.3,54.7,30.00,North,0,0.0,0.0,64,0.00,,,0.00,WUHU216HW,2013-06-22 02:05:00,
2013-06-21 22:10:00,67.0,54.4,30.00,North,0,0.0,0.0,64,0.00,,,0.00,WUHU216HW,2013-06-22 02:10:00,
2013-06-21 22:15:00,66.8,54.6,30.00,North,0,0.0,0.0,65,0.00,,,0.00,WUHU216HW,2013-06-22 02:15:00,
2013-06-21 22:20:00,66.6,54.5,30.00,North,0,0.0,0.0,65,0.00,,,0.00,WUHU216HW,2013-06-22 02:20:00,
2013-06-21 22:25:00,66.2,54.1,29.99,North,0,0.0,0.0,65,0.00,,,0.00,WUHU216HW,2013-06-22 02:25:00,
2013-06-21 22:30:00,65.9,54.2,29.99,North,0,0.0,0.0,66,0.00,,,0.00,WUHU216HW,2013-06-22 02:30:00,
2013-06-21 22:35:00,65.7,54.0,30.00,North,0,0.0,0.0,66,0.00,,,0.00,WUHU216HW,2013-06-22 02:35:00,
2013-06-21 22:40:00,65.3,54.1,29.99,North,0,0.0,0.0,67,0.00,,,0.00,WUHU216HW,2013-06-22 02:40:00,
2013-06-21 22:45:00,65.0,53.7,30.00,North,0,0.0,0.0,67,0.00,,,0.00,WUHU216HW,2013-06-22 02:45:00,
2013-06-21 22:50:00,64.6,53.8,29.99,North,0,0.0,0.0,68,0.00,,,0.00,WUHU216HW,2013-06-22 02:50:00,
2013-06-21 22:55:00,64.4,54.1,30.00,North,0,0.0,0.0,69,0.00,,,0.00,WUHU216HW,2013-06-22 02:55:00,
2013-06-21 23:00:00,64.1,53.7,30.00,North,0,0.0,0.0,69,0.00,,,0.00,WUHU216HW,2013-06-22 03:00:00,
2013-06-21 23:06:00,63.9,54.0,30.00,North,0,0.0,0.0,70,0.00,,,0.00,WUHU216HW,2013-06-22 03:06:00,
2013-06-21 23:11:00,63.7,53.8,30.00,North,0,0.0,0.0,70,0.00,,,0.00,WUHU216HW,2013-06-22 03:11:00,
2013-06-21 23:16:00,63.4,53.5,30.00,North,0,0.0,0.0,70,0.00,,,0.00,WUHU216HW,2013-06-22 03:16:00,
2013-06-21 23:21:00,63.2,53.3,30.00,North,0,0.0,0.0,70,0.00,,,0.00,WUHU216HW,2013-06-22 03:21:00,
2013-06-21 23:26:00,63.0,53.1,30.00,North,0,0.0,0.0,70,0.00,,,0.00,WUHU216HW,2013-06-22 03:26:00,
2013-06-21 23:31:00,63.0,53.1,30.00,North,0,0.0,0.0,70,0.00,,,0.00,WUHU216HW,2013-06-22 03:31:00,
2013-06-21 23:36:00,62.6,52.7,30.00,North,0,0.0,0.0,70,0.00,,,0.00,WUHU216HW,2013-06-22 03:36:00,
2013-06-21 23:41:00,62.5,52.6,30.00,North,0,0.0,0.0,70,0.00,,,0.00,WUHU216HW,2013-06-22 03:41:00,
2013-06-21 23:46:00,62.3,52.7,30.00,North,0,0.0,0.0,71,0.00,,,0.00,WUHU216HW,2013-06-22 03:46:00,
2013-06-21 23:51:00,61.9,52.5,30.00,North,0,0.0,0.0,71,0.00,,,0.00,WUHU216HW,2013-06-22 03:51:00,
2013-06-21 23:56:00,61.9,52.1,30.00,North,0,0.0,0.0,70,0.00,,,0.00,WUHU216HW,2013-06-22 03:56:00,